Time;durP1;ratioP1;P1;durP2;ratioP2;P2;SDS_P1;SDS_P2;PMS_P1;PMS_P2;Temp;Humidity;BMP_temperature;BMP_pressure;BME280_temperature;BME280_humidity;BME280_pressure;Samples;Min_cycle;Max_cycle;Signal;HPM_P1;HPM_P2
2023/09/25 00:02:15;;;;;;;2.10;1.90;;;20.40;52.60;;;;;;5036940;28;20199;-78
2023/09/25 00:04:42;;;;;;;2.15;1.95;;;20.40;52.60;;;;;;5020993;28;20215;-78
2023/09/25 00:07:09;;;;;;;1.95;1.80;;;20.40;52.70;;;;;;5020515;28;20689;-78
2023/09/25 00:09:36;;;;;;;2.35;2.13;;;20.50;52.80;;;;;;5036951;28;20554;-78
2023/09/25 00:12:05;;;;;;;2.08;1.83;;;20.40;52.80;;;;;;5020140;28;20196;-78
2023/09/25 00:14:32;;;;;;;2.08;1.88;;;20.40;52.80;;;;;;5036758;28;20234;-78
2023/09/25 00:17:00;;;;;;;2.17;1.83;;;20.40;52.80;;;;;;5036620;28;20612;-78
2023/09/25 00:19:27;;;;;;;1.73;1.63;;;20.30;52.80;;;;;;5036351;28;20211;-78
2023/09/25 00:21:54;;;;;;;2.30;1.83;;;20.40;52.90;;;;;;5003886;28;20196;-78
2023/09/25 00:24:21;;;;;;;1.90;1.70;;;20.30;52.80;;;;;;5037318;28;20207;-78
2023/09/25 00:26:48;;;;;;;1.65;1.55;;;20.30;52.90;;;;;;5036429;28;20219;-79
2023/09/25 00:29:17;;;;;;;1.92;1.73;;;20.30;52.80;;;;;;5037045;28;20237;-79
2023/09/25 00:31:44;;;;;;;2.20;1.80;;;20.40;53.00;;;;;;5036844;28;20619;-79
2023/09/25 00:34:13;;;;;;;2.15;1.80;;;20.30;52.90;;;;;;5037707;28;20199;-79
2023/09/25 00:36:40;;;;;;;2.00;1.80;;;20.30;52.90;;;;;;5036205;28;20216;-79
2023/09/25 00:39:08;;;;;;;2.20;1.80;;;20.30;52.90;;;;;;5036322;28;20191;-79
2023/09/25 00:41:34;;;;;;;2.10;1.83;;;20.30;52.90;;;;;;5036168;28;20195;-79
2023/09/25 00:44:01;;;;;;;2.08;1.88;;;20.30;52.90;;;;;;5036545;28;20218;-79
2023/09/25 00:46:28;;;;;;;1.90;1.70;;;20.30;53.00;;;;;;5036072;28;20215;-79
2023/09/25 00:48:55;;;;;;;2.30;2.00;;;20.30;53.00;;;;;;5036790;28;20195;-79
2023/09/25 00:51:24;;;;;;;2.63;1.92;;;20.30;53.00;;;;;;5036201;28;20199;-79
2023/09/25 00:53:50;;;;;;;2.00;1.80;;;20.30;53.00;;;;;;5036277;28;20199;-79
2023/09/25 00:56:18;;;;;;;2.97;1.92;;;20.30;53.10;;;;;;5035964;28;20211;-79
2023/09/25 00:58:45;;;;;;;1.60;1.50;;;20.20;53.10;;;;;;5036397;28;20654;-79
2023/09/25 01:01:12;;;;;;;2.00;1.80;;;20.30;53.30;;;;;;5036097;28;20199;-79
2023/09/25 01:03:40;;;;;;;2.35;1.80;;;20.20;53.20;;;;;;5036657;28;20195;-79
2023/09/25 01:06:07;;;;;;;2.03;1.90;;;20.20;53.30;;;;;;5036573;28;20662;-79
2023/09/25 01:08:36;;;;;;;2.10;1.90;;;20.20;53.30;;;;;;5035761;28;20206;-79
2023/09/25 01:11:03;;;;;;;1.77;1.60;;;20.20;53.40;;;;;;5038665;28;20646;-79
2023/09/25 01:13:31;;;;;;;2.03;1.70;;;20.20;53.40;;;;;;5039926;28;20222;-79
2023/09/25 01:15:58;;;;;;;2.60;1.70;;;20.20;53.40;;;;;;5023849;28;20712;-79
2023/09/25 01:18:25;;;;;;;2.30;1.80;;;20.20;53.50;;;;;;5039651;28;20195;-79
2023/09/25 01:20:52;;;;;;;1.75;1.65;;;20.10;53.40;;;;;;5039731;28;20245;-78
2023/09/25 01:23:20;;;;;;;2.15;1.73;;;20.10;53.40;;;;;;5039784;28;20203;-78
2023/09/25 01:25:47;;;;;;;1.90;1.80;;;20.10;53.40;;;;;;5039419;28;20589;-78
2023/09/25 01:28:14;;;;;;;2.33;1.65;;;20.10;53.50;;;;;;5040644;28;20197;-78
2023/09/25 01:30:42;;;;;;;1.60;1.50;;;20.10;53.50;;;;;;5039755;28;20199;-78
2023/09/25 01:33:09;;;;;;;2.10;1.55;;;20.10;53.50;;;;;;5039473;28;20275;-78
2023/09/25 01:35:37;;;;;;;2.13;1.92;;;20.10;53.50;;;;;;5039221;28;20302;-78
2023/09/25 01:38:04;;;;;;;2.35;1.80;;;20.10;53.50;;;;;;5023023;28;20195;-78
2023/09/25 01:40:33;;;;;;;2.22;1.80;;;20.10;53.50;;;;;;5023304;28;20202;-78
2023/09/25 01:43:00;;;;;;;2.03;1.83;;;20.10;53.50;;;;;;5054387;28;20199;-78
2023/09/25 01:45:28;;;;;;;1.98;1.80;;;20.10;53.50;;;;;;5064636;28;20191;-78
2023/09/25 01:47:56;;;;;;;1.88;1.73;;;20.00;53.50;;;;;;5041071;28;20246;-79
2023/09/25 01:50:23;;;;;;;2.20;1.83;;;20.10;53.60;;;;;;5039422;28;20619;-79
2023/09/25 01:52:52;;;;;;;2.03;1.83;;;20.00;53.50;;;;;;5039261;28;20658;-79
2023/09/25 01:55:19;;;;;;;2.25;1.70;;;20.00;53.50;;;;;;5038960;28;20597;-79
2023/09/25 01:57:48;;;;;;;2.10;1.67;;;20.00;53.60;;;;;;5039015;28;20233;-79
2023/09/25 02:00:18;;;;;;;1.80;1.70;;;20.00;53.60;;;;;;5039073;28;20206;-79
2023/09/25 02:02:45;;;;;;;2.00;1.80;;;20.00;53.70;;;;;;5023591;28;20192;-79
2023/09/25 02:05:12;;;;;;;2.17;1.75;;;20.00;53.70;;;;;;5038784;28;20207;-79
2023/09/25 02:07:39;;;;;;;2.00;1.70;;;20.00;53.70;;;;;;5022251;28;20246;-79
2023/09/25 02:10:07;;;;;;;1.65;1.55;;;19.90;53.70;;;;;;5039009;28;20187;-79
2023/09/25 02:12:35;;;;;;;2.13;1.92;;;20.00;53.70;;;;;;5038928;28;20685;-79
2023/09/25 02:15:05;;;;;;;2.00;1.80;;;20.00;53.70;;;;;;5038716;28;20278;-79
2023/09/25 02:17:32;;;;;;;1.90;1.70;;;20.00;53.70;;;;;;5039571;28;20222;-79
2023/09/25 02:20:12;;;;;;;1.77;1.60;;;20.00;53.70;;;;;;5039606;28;20283;-79
2023/09/25 02:22:40;;;;;;;2.20;2.00;;;19.90;53.60;;;;;;5037250;28;20245;-79
2023/09/25 02:25:08;;;;;;;2.00;1.80;;;19.90;53.60;;;;;;5038952;28;20245;-79
2023/09/25 02:27:36;;;;;;;1.75;1.60;;;19.90;53.60;;;;;;5038627;28;20755;-79
2023/09/25 02:30:05;;;;;;;2.17;1.98;;;19.90;53.50;;;;;;5038303;28;20199;-79
2023/09/25 02:32:33;;;;;;;2.65;1.92;;;19.90;53.60;;;;;;5038189;28;20653;-79
2023/09/25 02:35:00;;;;;;;1.90;1.80;;;19.90;53.50;;;;;;5022246;28;20199;-79
2023/09/25 02:37:30;;;;;;;1.98;1.75;;;19.90;53.50;;;;;;5022448;28;20653;-79
2023/09/25 02:39:57;;;;;;;2.25;1.70;;;19.90;53.50;;;;;;5038360;28;20207;-79
2023/09/25 02:42:23;;;;;;;2.13;1.58;;;19.90;53.50;;;;;;5022099;28;20200;-79
2023/09/25 02:44:51;;;;;;;1.70;1.60;;;19.90;53.50;;;;;;5039130;28;20202;-79
2023/09/25 02:47:19;;;;;;;1.98;1.65;;;19.90;53.50;;;;;;5038395;28;20314;-79
2023/09/25 02:49:46;;;;;;;2.00;1.80;;;19.90;53.50;;;;;;5038190;28;20203;-79
2023/09/25 02:52:13;;;;;;;1.85;1.75;;;19.90;53.60;;;;;;5038249;28;20615;-79
2023/09/25 02:54:41;;;;;;;2.50;1.70;;;19.90;53.50;;;;;;5038285;28;20195;-79
2023/09/25 02:57:08;;;;;;;2.28;1.70;;;19.90;53.50;;;;;;5039109;28;20701;-80
2023/09/25 02:59:36;;;;;;;1.73;1.63;;;19.80;53.50;;;;;;5038808;28;20191;-80
2023/09/25 03:02:03;;;;;;;2.22;1.85;;;19.90;53.50;;;;;;5038631;28;20238;-78
2023/09/25 03:04:32;;;;;;;2.15;1.70;;;19.90;53.50;;;;;;5038127;28;20198;-78
2023/09/25 03:06:59;;;;;;;2.00;1.80;;;19.80;53.50;;;;;;5037832;28;20753;-78
2023/09/25 03:09:26;;;;;;;1.88;1.73;;;19.80;53.50;;;;;;5038115;28;20278;-78
2023/09/25 03:11:53;;;;;;;1.95;1.75;;;19.80;53.30;;;;;;5037809;28;20199;-78
2023/09/25 03:14:20;;;;;;;1.88;1.70;;;19.80;53.10;;;;;;5037657;28;20333;-78
2023/09/25 03:16:47;;;;;;;1.52;1.42;;;19.80;53.70;;;;;;5037642;28;20211;-78
2023/09/25 03:19:14;;;;;;;1.88;1.60;;;19.80;53.10;;;;;;5005292;28;20206;-78
2023/09/25 03:21:43;;;;;;;2.10;1.90;;;19.80;53.10;;;;;;5038116;28;20195;-78
2023/09/25 03:24:10;;;;;;;1.80;1.70;;;19.90;53.20;;;;;;5037579;28;20199;-78
2023/09/25 03:26:37;;;;;;;2.00;1.80;;;19.90;53.20;;;;;;5037878;28;20226;-78
2023/09/25 03:29:06;;;;;;;2.85;1.88;;;20.00;53.10;;;;;;5004778;28;20606;-78
2023/09/25 03:31:33;;;;;;;1.73;1.63;;;20.00;53.10;;;;;;5037987;28;20568;-78
2023/09/25 03:34:01;;;;;;;1.90;1.80;;;20.00;52.90;;;;;;5038367;28;20191;-78
2023/09/25 03:36:28;;;;;;;2.38;1.65;;;20.10;52.90;;;;;;5037177;28;20247;-78
2023/09/25 03:38:57;;;;;;;1.80;1.50;;;20.10;52.90;;;;;;5038146;28;20555;-78
2023/09/25 03:41:25;;;;;;;1.75;1.65;;;20.10;52.80;;;;;;5036871;28;20210;-78
2023/09/25 03:43:52;;;;;;;2.08;1.88;;;20.10;52.70;;;;;;5036994;28;20196;-79
2023/09/25 03:46:19;;;;;;;1.60;1.50;;;20.10;52.60;;;;;;5037662;28;20556;-79
2023/09/25 03:48:48;;;;;;;1.52;1.42;;;20.20;52.70;;;;;;5037078;28;20269;-79
2023/09/25 03:51:16;;;;;;;1.75;1.65;;;20.10;52.50;;;;;;5036911;28;20253;-79
2023/09/25 03:53:42;;;;;;;1.75;1.65;;;20.20;52.50;;;;;;5037078;28;20662;-79
2023/09/25 03:56:12;;;;;;;1.88;1.77;;;20.20;52.50;;;;;;5038437;28;20302;-79
2023/09/25 03:58:39;;;;;;;1.80;1.70;;;20.20;52.50;;;;;;5036854;28;20195;-79
2023/09/25 04:01:07;;;;;;;2.22;1.50;;;20.20;52.50;;;;;;5020816;28;20241;-79
2023/09/25 04:03:33;;;;;;;1.70;1.60;;;20.20;52.50;;;;;;5037081;28;20245;-79
2023/09/25 04:06:00;;;;;;;1.63;1.50;;;20.20;52.40;;;;;;5036568;28;20593;-79
2023/09/25 04:08:27;;;;;;;2.40;1.50;;;20.20;52.40;;;;;;5036647;28;20268;-79
2023/09/25 04:10:54;;;;;;;1.70;1.60;;;20.20;52.40;;;;;;5036633;28;20235;-79
2023/09/25 04:13:23;;;;;;;1.80;1.70;;;20.20;52.30;;;;;;5036880;28;20195;-79
2023/09/25 04:15:51;;;;;;;2.13;1.88;;;20.20;52.40;;;;;;5054070;28;20211;-79
2023/09/25 04:18:19;;;;;;;3.00;1.60;;;20.20;52.40;;;;;;5037344;28;20196;-79
2023/09/25 04:20:46;;;;;;;1.73;1.63;;;20.20;52.40;;;;;;5037401;28;20282;-79
2023/09/25 04:23:14;;;;;;;2.15;1.88;;;20.10;52.30;;;;;;5018697;28;20253;-79
2023/09/25 04:25:41;;;;;;;1.80;1.70;;;20.10;52.40;;;;;;5035761;28;20715;-79
2023/09/25 04:28:11;;;;;;;1.65;1.55;;;20.10;52.40;;;;;;5036212;28;20301;-78
2023/09/25 04:30:40;;;;;;;1.70;1.60;;;20.10;52.50;;;;;;5054395;28;20184;-78
2023/09/25 04:33:07;;;;;;;2.63;1.60;;;20.10;52.60;;;;;;5036007;28;20264;-79
2023/09/25 04:35:35;;;;;;;2.00;1.80;;;20.00;52.60;;;;;;5036428;28;20215;-77
2023/09/25 04:38:03;;;;;;;2.42;1.95;;;20.00;52.70;;;;;;5035943;28;20692;-79
2023/09/25 04:40:31;;;;;;;2.03;1.83;;;20.00;53.10;;;;;;5037634;28;20202;-79
2023/09/25 04:42:59;;;;;;;2.13;1.83;;;20.00;53.10;;;;;;5020235;28;20202;-78
2023/09/25 04:45:29;;;;;;;1.95;1.75;;;20.00;53.00;;;;;;5035664;28;20219;-79
2023/09/25 04:47:57;;;;;;;1.98;1.80;;;19.90;52.90;;;;;;5020480;28;20230;-79
2023/09/25 04:50:24;;;;;;;2.22;1.85;;;19.90;52.90;;;;;;5019982;28;20493;-79
2023/09/25 04:52:51;;;;;;;4.18;1.77;;;19.90;53.30;;;;;;5037491;28;20203;-79
2023/09/25 04:55:19;;;;;;;3.55;1.90;;;19.90;53.70;;;;;;5036291;28;20218;-79
2023/09/25 04:57:46;;;;;;;2.50;1.80;;;19.90;53.70;;;;;;5036013;28;20253;-79
2023/09/25 05:00:25;;;;;;;2.05;1.80;;;19.90;53.70;;;;;;5036440;28;20206;-79
2023/09/25 05:02:52;;;;;;;1.70;1.60;;;19.90;53.40;;;;;;5054204;28;20187;-79
2023/09/25 05:05:21;;;;;;;3.03;1.90;;;19.90;53.50;;;;;;5036982;28;20218;-79
2023/09/25 05:07:50;;;;;;;1.70;1.60;;;19.80;53.50;;;;;;5020091;28;20207;-79
2023/09/25 05:10:18;;;;;;;1.80;1.70;;;19.80;53.70;;;;;;5036100;28;20187;-79
2023/09/25 05:12:45;;;;;;;1.88;1.70;;;19.80;53.90;;;;;;5036790;28;20203;-79
2023/09/25 05:15:12;;;;;;;3.47;1.75;;;19.80;54.00;;;;;;5035799;28;20200;-79
2023/09/25 05:17:40;;;;;;;1.98;1.65;;;19.80;54.20;;;;;;5035878;28;20261;-79
2023/09/25 05:20:10;;;;;;;2.22;1.70;;;19.80;53.80;;;;;;5035883;28;20199;-80
2023/09/25 05:22:39;;;;;;;2.10;1.73;;;19.80;54.40;;;;;;5035889;28;20257;-79
2023/09/25 05:25:08;;;;;;;3.38;1.80;;;19.80;53.80;;;;;;5035991;28;20195;-79
2023/09/25 05:27:35;;;;;;;1.95;1.63;;;19.80;53.50;;;;;;5036812;28;20249;-80
2023/09/25 05:30:02;;;;;;;1.88;1.70;;;19.80;53.30;;;;;;5036020;28;20198;-80
2023/09/25 05:32:29;;;;;;;3.40;1.85;;;19.80;53.10;;;;;;5035838;28;20568;-80
2023/09/25 05:34:56;;;;;;;2.28;1.77;;;19.80;53.20;;;;;;5035637;28;20207;-80
2023/09/25 05:37:23;;;;;;;2.00;1.80;;;19.80;53.10;;;;;;5035891;28;20226;-80
2023/09/25 05:39:51;;;;;;;2.05;1.77;;;19.80;53.00;;;;;;5035707;28;20187;-80
2023/09/25 05:42:18;;;;;;;2.00;1.60;;;19.70;52.90;;;;;;5035716;28;20225;-80
2023/09/25 05:44:45;;;;;;;2.88;2.10;;;19.80;52.90;;;;;;5035632;28;20195;-79
2023/09/25 05:47:12;;;;;;;3.05;2.10;;;19.80;52.80;;;;;;5019586;28;20215;-81
2023/09/25 05:49:40;;;;;;;3.78;2.20;;;19.80;52.70;;;;;;5019663;28;20203;-81
2023/09/25 05:52:10;;;;;;;1.92;1.73;;;19.80;53.10;;;;;;5035401;28;20187;-82
2023/09/25 05:54:37;;;;;;;1.63;1.52;;;19.70;52.70;;;;;;5035510;28;20238;-81
2023/09/25 05:57:06;;;;;;;2.58;1.90;;;19.70;52.70;;;;;;5021219;28;20609;-80
2023/09/25 05:59:34;;;;;;;2.72;2.05;;;19.70;52.70;;;;;;5038910;28;20647;-81
2023/09/25 06:02:01;;;;;;;2.35;1.70;;;19.70;52.50;;;;;;5039221;28;20206;-80
2023/09/25 06:04:28;;;;;;;2.42;1.85;;;19.70;52.30;;;;;;5039389;28;20197;-80
2023/09/25 06:06:57;;;;;;;3.13;2.05;;;19.60;52.10;;;;;;5023794;28;20246;-79
2023/09/25 06:09:24;;;;;;;2.53;2.00;;;19.70;52.00;;;;;;5039205;28;20276;-79
2023/09/25 06:11:50;;;;;;;2.33;2.10;;;19.70;51.60;;;;;;5039142;28;20654;-79
2023/09/25 06:14:19;;;;;;;2.58;1.85;;;19.70;51.20;;;;;;5039633;28;20192;-79
2023/09/25 06:16:48;;;;;;;2.60;2.13;;;19.70;50.90;;;;;;5039701;28;20306;-80
2023/09/25 06:19:15;;;;;;;2.97;1.90;;;19.80;51.00;;;;;;5039145;28;20274;-79
2023/09/25 06:21:42;;;;;;;2.33;2.10;;;19.80;51.00;;;;;;5039400;28;20199;-80
2023/09/25 06:24:11;;;;;;;2.80;2.00;;;19.80;50.90;;;;;;5053398;22;20226;-80
2023/09/25 06:26:39;;;;;;;2.88;2.20;;;19.80;51.20;;;;;;5042156;28;20253;-80
2023/09/25 06:29:08;;;;;;;3.15;2.00;;;19.80;51.40;;;;;;5041053;28;20226;-80
2023/09/25 06:31:36;;;;;;;3.47;1.98;;;19.80;51.50;;;;;;5040528;28;20219;-80
2023/09/25 06:34:04;;;;;;;2.40;2.10;;;19.80;51.50;;;;;;5039677;28;20590;-80
2023/09/25 06:36:32;;;;;;;2.22;2.03;;;19.90;51.80;;;;;;5038696;28;20215;-78
2023/09/25 06:38:59;;;;;;;2.20;1.90;;;19.90;51.30;;;;;;5020872;28;20632;-78
2023/09/25 06:41:26;;;;;;;2.22;2.03;;;19.90;51.30;;;;;;5037007;28;20570;-78
2023/09/25 06:43:54;;;;;;;3.35;2.40;;;19.90;51.20;;;;;;5021355;28;20234;-78
2023/09/25 06:46:21;;;;;;;3.05;2.25;;;19.90;51.20;;;;;;5037216;28;20216;-78
2023/09/25 06:48:50;;;;;;;3.67;2.15;;;19.90;51.40;;;;;;5037711;28;20219;-78
2023/09/25 06:51:17;;;;;;;2.30;2.10;;;20.00;51.30;;;;;;5037494;28;20628;-78
2023/09/25 06:53:44;;;;;;;2.80;2.20;;;20.00;51.70;;;;;;5036089;28;20192;-78
2023/09/25 06:56:11;;;;;;;2.72;2.15;;;20.10;51.10;;;;;;5034991;28;20589;-78
2023/09/25 06:58:38;;;;;;;3.92;2.35;;;20.10;51.00;;;;;;5035202;28;20191;-78
2023/09/25 07:01:06;;;;;;;3.20;2.38;;;20.10;51.20;;;;;;5035945;28;20616;-78
2023/09/25 07:03:34;;;;;;;2.97;2.53;;;20.10;51.00;;;;;;5037232;28;20200;-78
2023/09/25 07:06:02;;;;;;;3.83;2.50;;;20.10;51.00;;;;;;5036591;28;20223;-78
2023/09/25 07:08:30;;;;;;;4.82;2.42;;;20.10;51.00;;;;;;5035746;28;20270;-78
2023/09/25 07:10:58;;;;;;;3.33;2.67;;;20.20;50.90;;;;;;5036482;28;20287;-78
2023/09/25 07:13:24;;;;;;;5.95;2.65;;;20.20;50.80;;;;;;5038716;28;20191;-79
2023/09/25 07:15:52;;;;;;;4.13;2.28;;;20.30;50.60;;;;;;5038296;28;20220;-79
2023/09/25 07:18:19;;;;;;;4.72;2.60;;;20.50;50.50;;;;;;5022795;28;20649;-79
2023/09/25 07:20:56;;;;;;;3.50;2.50;;;20.60;50.20;;;;;;5038255;28;20221;-79
2023/09/25 07:23:25;;;;;;;4.60;2.70;;;20.70;50.10;;;;;;5022514;28;20246;-79
2023/09/25 07:26:03;;;;;;;5.78;2.55;;;20.70;49.70;;;;;;5039285;28;20254;-79
2023/09/25 07:28:31;;;;;;;4.07;2.63;;;20.80;49.50;;;;;;5038758;28;20212;-79
2023/09/25 07:30:59;;;;;;;4.20;2.40;;;21.00;49.00;;;;;;5038941;28;20206;-79
2023/09/25 07:33:27;;;;;;;3.20;2.63;;;21.20;48.50;;;;;;5038684;28;20200;-79
2023/09/25 07:35:55;;;;;;;5.32;2.47;;;21.40;48.00;;;;;;5038102;28;20216;-79
2023/09/25 07:38:22;;;;;;;5.00;2.70;;;21.60;48.30;;;;;;5021448;28;20203;-79
2023/09/25 07:40:50;;;;;;;2.60;2.35;;;21.80;47.20;;;;;;5038058;28;20287;-79
2023/09/25 07:43:19;;;;;;;4.18;3.00;;;22.00;46.90;;;;;;5038265;28;20196;-78
2023/09/25 07:45:48;;;;;;;3.92;2.80;;;22.30;46.50;;;;;;5038206;28;20310;-79
2023/09/25 07:48:16;;;;;;;4.13;2.80;;;22.40;46.70;;;;;;5037082;28;20212;-79
2023/09/25 07:50:45;;;;;;;3.72;2.95;;;22.60;47.00;;;;;;5034322;28;20224;-78
2023/09/25 07:53:12;;;;;;;4.47;2.85;;;22.70;46.60;;;;;;5035145;28;20195;-79
2023/09/25 07:55:39;;;;;;;4.20;2.78;;;22.90;46.60;;;;;;5036864;28;20216;-79
2023/09/25 07:58:11;;;;;;;6.18;2.88;;;23.00;45.90;;;;;;5005159;28;20269;-79
2023/09/25 08:00:40;;;;;;;5.07;3.17;;;23.10;45.50;;;;;;5035851;28;20250;-79
2023/09/25 08:03:16;;;;;;;4.90;3.10;;;23.20;45.50;;;;;;5037325;28;20196;-79
2023/09/25 08:05:43;;;;;;;4.85;2.90;;;23.40;45.40;;;;;;5036960;28;20216;-79
2023/09/25 08:08:12;;;;;;;5.22;3.05;;;23.40;45.00;;;;;;5050336;28;20235;-78
2023/09/25 08:10:41;;;;;;;5.47;3.13;;;23.50;45.40;;;;;;5050623;28;20204;-79
2023/09/25 08:13:10;;;;;;;4.97;3.40;;;23.70;44.70;;;;;;5035008;28;20208;-79
2023/09/25 08:15:37;;;;;;;4.28;3.20;;;23.70;44.50;;;;;;5037065;28;20212;-79
2023/09/25 08:18:04;;;;;;;4.30;3.22;;;23.80;44.20;;;;;;5035800;28;20204;-78
2023/09/25 08:20:32;;;;;;;5.07;3.20;;;23.90;44.10;;;;;;5033570;28;20230;-78
2023/09/25 08:22:59;;;;;;;4.72;3.20;;;24.00;44.00;;;;;;5034290;28;20216;-78
2023/09/25 08:25:27;;;;;;;4.15;3.03;;;24.10;44.00;;;;;;5034620;28;20211;-78
2023/09/25 08:27:54;;;;;;;3.47;3.10;;;24.10;43.50;;;;;;5035065;28;20200;-79
2023/09/25 08:30:22;;;;;;;4.90;2.85;;;24.10;43.50;;;;;;5035896;28;20224;-78
2023/09/25 08:32:49;;;;;;;11.43;3.28;;;24.20;43.30;;;;;;5035451;28;20261;-79
2023/09/25 08:35:16;;;;;;;3.65;2.95;;;24.20;43.10;;;;;;5018806;28;20230;-78
2023/09/25 08:37:43;;;;;;;4.63;3.20;;;24.30;43.40;;;;;;5034749;28;20616;-79
2023/09/25 08:40:11;;;;;;;4.20;3.10;;;24.30;43.40;;;;;;5034467;28;20680;-79
2023/09/25 08:42:38;;;;;;;5.03;3.13;;;24.40;43.40;;;;;;5034396;28;20206;-79
2023/09/25 08:45:06;;;;;;;4.85;3.00;;;24.50;43.40;;;;;;5034516;28;20253;-79
2023/09/25 08:47:35;;;;;;;5.32;3.13;;;24.50;43.30;;;;;;5034800;28;20199;-79
2023/09/25 08:50:02;;;;;;;4.07;3.05;;;24.60;43.30;;;;;;5033527;28;20220;-79
2023/09/25 08:52:31;;;;;;;4.53;2.83;;;24.70;43.20;;;;;;5034983;28;20197;-79
2023/09/25 08:55:00;;;;;;;4.97;3.22;;;24.70;43.00;;;;;;5019371;28;20200;-79
2023/09/25 08:57:27;;;;;;;5.63;2.88;;;24.70;42.80;;;;;;5035921;28;20215;-79
2023/09/25 08:59:54;;;;;;;4.03;2.95;;;24.80;42.70;;;;;;5035783;28;20192;-79
2023/09/25 09:02:21;;;;;;;4.18;2.78;;;24.90;42.60;;;;;;5034711;28;20254;-79
2023/09/25 09:04:51;;;;;;;3.13;2.83;;;24.90;42.50;;;;;;5050891;28;20235;-79
2023/09/25 09:07:18;;;;;;;6.88;3.13;;;25.00;42.40;;;;;;5035304;28;20720;-79
2023/09/25 09:09:46;;;;;;;4.03;2.55;;;25.00;42.20;;;;;;5033925;28;20212;-79
2023/09/25 09:12:13;;;;;;;4.15;2.75;;;25.10;42.20;;;;;;5035457;28;20202;-79
2023/09/25 09:14:40;;;;;;;3.58;2.58;;;25.10;42.00;;;;;;5034023;28;20203;-78
2023/09/25 09:17:09;;;;;;;3.58;2.92;;;25.10;41.90;;;;;;5034402;28;20575;-78
2023/09/25 09:19:37;;;;;;;3.38;2.53;;;25.20;41.80;;;;;;5034056;28;20190;-78
2023/09/25 09:22:06;;;;;;;3.53;2.70;;;25.20;41.80;;;;;;5034157;28;20313;-79
2023/09/25 09:24:56;;;;;;;4.20;2.90;;;25.30;41.70;;;;;;5035487;28;20212;-79
2023/09/25 09:27:24;;;;;;;3.03;2.72;;;25.30;41.60;;;;;;5033777;28;20200;-78
2023/09/25 09:29:52;;;;;;;3.90;2.70;;;25.30;41.60;;;;;;5034011;28;20618;-78
2023/09/25 09:32:19;;;;;;;3.10;2.75;;;25.30;41.50;;;;;;5037438;28;20605;-78
2023/09/25 09:34:47;;;;;;;3.45;2.55;;;25.40;41.50;;;;;;5038088;28;20254;-78
2023/09/25 09:37:18;;;;;;;3.67;2.90;;;25.40;41.50;;;;;;5037605;28;20310;-78
2023/09/25 09:39:52;;;;;;;4.28;2.90;;;25.40;41.40;;;;;;5037631;28;20635;-78
2023/09/25 09:42:20;;;;;;;3.70;2.88;;;25.40;41.30;;;;;;5022885;28;20196;-78
2023/09/25 09:44:47;;;;;;;4.45;2.70;;;25.40;41.30;;;;;;5036980;28;20227;-78
2023/09/25 09:47:14;;;;;;;4.93;2.88;;;25.40;41.30;;;;;;5038208;28;20571;-79
2023/09/25 09:49:41;;;;;;;4.28;2.40;;;25.40;41.40;;;;;;5024995;28;20254;-81
2023/09/25 09:52:09;;;;;;;4.15;2.78;;;25.40;41.50;;;;;;5038102;28;20196;-79
2023/09/25 09:54:40;;;;;;;4.13;2.35;;;25.40;41.50;;;;;;5037150;28;20219;-78
2023/09/25 09:57:07;;;;;;;3.20;2.80;;;25.40;41.40;;;;;;5035841;28;20223;-78
2023/09/25 09:59:35;;;;;;;3.80;2.58;;;25.30;41.30;;;;;;5037705;28;20274;-78
2023/09/25 10:02:02;;;;;;;3.67;2.60;;;25.40;41.50;;;;;;5053615;28;20250;-79
2023/09/25 10:04:29;;;;;;;3.30;2.47;;;25.40;42.20;;;;;;5037004;28;20206;-78
2023/09/25 10:06:59;;;;;;;3.72;2.80;;;25.30;41.50;;;;;;5019644;28;20221;-78
2023/09/25 10:09:26;;;;;;;4.00;2.90;;;25.30;41.50;;;;;;5036563;28;20345;-79
2023/09/25 10:11:55;;;;;;;2.85;2.38;;;25.30;41.60;;;;;;5035826;28;20200;-78
2023/09/25 10:14:23;;;;;;;3.25;2.60;;;25.30;41.60;;;;;;5035550;28;20202;-78
2023/09/25 10:17:08;;;;;;;3.65;2.40;;;25.30;41.80;;;;;;5036011;28;20216;-79
2023/09/25 10:19:49;;;;;;;3.67;2.60;;;25.20;41.80;;;;;;5036806;28;20278;-79
2023/09/25 10:22:20;;;;;;;3.67;2.60;;;25.20;41.90;;;;;;5020925;28;20192;-79
2023/09/25 10:24:54;;;;;;;2.88;2.58;;;25.20;42.40;;;;;;5035971;28;20204;-78
2023/09/25 10:27:24;;;;;;;2.70;2.47;;;25.20;41.90;;;;;;5036056;28;20238;-78
2023/09/25 10:30:07;;;;;;;3.72;2.42;;;25.20;41.90;;;;;;5035245;28;20277;-78
2023/09/25 10:32:37;;;;;;;2.97;2.40;;;25.20;42.10;;;;;;5035229;28;20195;-78
2023/09/25 10:35:39;;;;;;;2.90;2.20;;;25.20;42.00;;;;;;5035233;28;20199;-78
2023/09/25 10:38:14;;;;;;;3.13;2.40;;;25.10;42.20;;;;;;5035580;28;20196;-78
2023/09/25 10:40:45;;;;;;;3.25;2.63;;;25.10;42.20;;;;;;5035418;28;20658;-79
2023/09/25 10:43:15;;;;;;;3.15;2.58;;;25.10;42.30;;;;;;5033886;28;20658;-78
2023/09/25 10:45:42;;;;;;;3.67;2.50;;;25.00;42.40;;;;;;5035652;28;20282;-78
2023/09/25 10:48:10;;;;;;;2.65;2.45;;;25.00;42.50;;;;;;5035277;28;20204;-78
2023/09/25 10:50:37;;;;;;;2.75;2.38;;;25.00;42.70;;;;;;5034578;28;20211;-78
2023/09/25 10:53:06;;;;;;;2.55;2.20;;;25.00;42.70;;;;;;5034638;28;20235;-78
2023/09/25 10:55:33;;;;;;;3.70;2.40;;;24.90;42.90;;;;;;5036012;28;20310;-78
2023/09/25 10:58:01;;;;;;;3.00;2.60;;;24.80;43.20;;;;;;5034778;28;20270;-78
2023/09/25 11:00:29;;;;;;;3.20;2.45;;;24.80;43.40;;;;;;5034680;28;20195;-78
2023/09/25 11:02:57;;;;;;;2.78;2.20;;;24.80;43.50;;;;;;5034684;28;20196;-78
2023/09/25 11:05:24;;;;;;;2.30;2.08;;;24.70;43.50;;;;;;5018673;28;20219;-78
2023/09/25 11:07:50;;;;;;;3.88;2.38;;;24.70;43.70;;;;;;5034630;28;20196;-78
2023/09/25 11:10:17;;;;;;;3.10;2.30;;;24.70;43.80;;;;;;5034440;28;20682;-78
2023/09/25 11:12:47;;;;;;;3.55;2.30;;;24.70;44.00;;;;;;5035176;28;20199;-78
2023/09/25 11:15:14;;;;;;;2.55;2.20;;;24.70;43.90;;;;;;5034880;28;20196;-78
2023/09/25 11:17:44;;;;;;;2.38;2.17;;;24.70;43.90;;;;;;5019082;28;20206;-78
2023/09/25 11:20:18;;;;;;;2.55;2.30;;;24.70;44.00;;;;;;5035587;28;20184;-78
2023/09/25 11:22:46;;;;;;;3.38;2.10;;;24.70;44.00;;;;;;5034350;28;20188;-78
2023/09/25 11:25:15;;;;;;;2.10;1.90;;;24.70;44.10;;;;;;5034264;28;20291;-78
2023/09/25 11:27:52;;;;;;;3.15;2.50;;;24.70;44.10;;;;;;5034568;28;20211;-78
2023/09/25 11:30:19;;;;;;;2.90;2.30;;;24.70;44.20;;;;;;5034238;28;20215;-78
2023/09/25 11:32:49;;;;;;;3.08;2.58;;;24.70;44.40;;;;;;5034234;28;20195;-78
2023/09/25 11:35:18;;;;;;;2.10;1.90;;;24.70;44.40;;;;;;5034866;28;20234;-78
2023/09/25 11:37:57;;;;;;;2.92;2.00;;;24.70;44.30;;;;;;5035091;28;20191;-78
2023/09/25 11:40:24;;;;;;;2.78;2.20;;;24.70;44.40;;;;;;5033998;28;20562;-78
2023/09/25 11:42:52;;;;;;;2.35;1.90;;;24.70;44.40;;;;;;5032540;28;20211;-78
2023/09/25 11:45:19;;;;;;;3.17;2.22;;;24.70;44.40;;;;;;5016025;28;20310;-78
2023/09/25 11:47:47;;;;;;;2.45;2.20;;;24.70;44.40;;;;;;5033832;28;20207;-78
2023/09/25 11:50:16;;;;;;;2.65;2.20;;;24.70;44.40;;;;;;5033644;28;20216;-78
2023/09/25 11:52:43;;;;;;;2.60;2.35;;;24.70;44.40;;;;;;5033789;28;20214;-78
2023/09/25 11:55:11;;;;;;;2.40;2.10;;;24.70;44.50;;;;;;5033461;28;20256;-78
2023/09/25 11:57:38;;;;;;;2.28;1.90;;;24.80;44.60;;;;;;5034636;28;20211;-78
2023/09/25 12:00:07;;;;;;;1.90;1.75;;;24.70;44.60;;;;;;5017245;28;20244;-78
2023/09/25 12:02:40;;;;;;;1.85;1.70;;;24.80;44.80;;;;;;5034896;28;20190;-78
2023/09/25 12:05:09;;;;;;;2.65;1.90;;;24.70;44.80;;;;;;5033478;28;20200;-78
2023/09/25 12:07:36;;;;;;;2.55;2.05;;;24.80;45.60;;;;;;5033454;28;20567;-78
2023/09/25 12:10:05;;;;;;;2.60;1.90;;;24.70;45.00;;;;;;5033304;28;20215;-78
2023/09/25 12:12:32;;;;;;;2.40;2.20;;;24.70;45.00;;;;;;5033637;28;20200;-78
2023/09/25 12:14:59;;;;;;;2.30;2.10;;;24.70;45.10;;;;;;5033295;28;20202;-78
2023/09/25 12:17:27;;;;;;;2.05;1.85;;;24.70;45.10;;;;;;5034578;28;20199;-78
2023/09/25 12:19:54;;;;;;;2.20;1.98;;;24.70;45.30;;;;;;5033182;28;20200;-78
2023/09/25 12:24:58;;;;;;;2.33;2.13;;;24.70;45.50;;;;;;5038629;28;20298;-76
2023/09/25 12:27:25;;;;;;;3.00;2.25;;;24.70;45.60;;;;;;5042153;28;20195;-76
2023/09/25 12:29:52;;;;;;;2.10;1.90;;;24.70;45.70;;;;;;5039471;28;20215;-76
2023/09/25 12:32:18;;;;;;;2.22;2.00;;;24.70;45.80;;;;;;5039182;28;20253;-76
2023/09/25 12:34:45;;;;;;;2.10;1.90;;;24.60;45.80;;;;;;5037254;28;20649;-76
2023/09/25 12:37:12;;;;;;;2.47;1.95;;;24.60;45.80;;;;;;5038022;28;20222;-76
2023/09/25 12:39:40;;;;;;;2.17;1.98;;;24.70;46.00;;;;;;5020550;28;20199;-76
2023/09/25 12:42:09;;;;;;;2.20;2.00;;;24.60;46.00;;;;;;5036027;28;20191;-76
2023/09/25 12:44:36;;;;;;;2.33;1.90;;;24.60;46.00;;;;;;5036054;28;20241;-76
2023/09/25 12:47:03;;;;;;;2.22;2.03;;;24.60;46.10;;;;;;5036074;28;20215;-76
2023/09/25 12:49:30;;;;;;;2.00;1.80;;;24.50;46.10;;;;;;5035849;28;20202;-76
2023/09/25 12:51:56;;;;;;;2.22;1.90;;;24.60;46.20;;;;;;5020116;28;20195;-76
2023/09/25 12:54:24;;;;;;;2.35;2.05;;;24.50;46.20;;;;;;5037260;28;20252;-76
2023/09/25 12:56:51;;;;;;;2.30;1.92;;;24.60;46.40;;;;;;5036960;28;20567;-76